Time;durP1;ratioP1;P1;durP2;ratioP2;P2;SDS_P1;SDS_P2;PMS_P1;PMS_P2;Temp;Humidity;BMP_temperature;BMP_pressure;BME280_temperature;BME280_humidity;BME280_pressure;Samples;Min_cycle;Max_cycle;Signal;HPM_P1;HPM_P2
2022/02/02 00:02:36;;;;;;;45.83;5.18;;;6.00;99.90;;;4.47;100.00;99237.41;4845580;28;20048;-81
2022/02/02 00:05:21;;;;;;;39.63;5.00;;;6.00;99.90;;;4.49;100.00;99138.25;4807597;28;20044;-81
2022/02/02 00:13:14;;;;;;;44.92;6.40;;;6.10;99.90;;;4.47;100.00;99187.00;4910892;28;21194;-82
2022/02/02 00:16:09;;;;;;;30.67;5.00;;;6.00;99.90;;;4.47;100.00;99211.31;4900632;28;20032;-81
2022/02/02 00:21:04;;;;;;;36.42;5.90;;;6.10;99.90;;;4.52;100.00;99217.16;4933916;28;20112;-82
2022/02/02 00:23:42;;;;;;;32.40;5.00;;;6.00;99.90;;;4.48;100.00;99212.16;4941087;28;20441;-81
2022/02/02 00:26:20;;;;;;;33.33;4.80;;;6.10;99.90;;;4.46;100.00;99220.03;4913845;28;20641;-83
2022/02/02 00:28:54;;;;;;;24.83;4.40;;;6.10;99.90;;;4.48;100.00;99233.84;4909571;28;20049;-81
2022/02/02 00:31:29;;;;;;;43.05;4.18;;;6.00;99.90;;;4.53;100.00;99233.66;4896911;28;20031;-82
2022/02/02 00:34:02;;;;;;;29.92;3.88;;;6.10;99.90;;;4.52;100.00;99235.41;4911677;28;20549;-82
2022/02/02 00:36:37;;;;;;;25.88;4.72;;;6.10;99.90;;;4.55;100.00;99224.00;4926989;28;20026;-82
2022/02/02 00:39:04;;;;;;;35.00;5.18;;;6.10;99.90;;;4.47;100.00;99223.50;4914515;28;20042;-82
2022/02/02 00:41:30;;;;;;;30.17;5.00;;;6.00;99.90;;;4.37;100.00;99219.63;4888620;28;20053;-81
2022/02/02 00:43:59;;;;;;;29.70;5.32;;;6.00;99.90;;;4.36;100.00;99204.91;4887928;28;20753;-83
2022/02/02 00:46:29;;;;;;;28.13;4.28;;;5.30;99.90;;;4.29;100.00;99218.19;4929165;28;20071;-81
2022/02/02 00:49:01;;;;;;;41.60;5.30;;;;;;;4.24;100.00;99217.56;4925708;28;20046;-81
2022/02/02 00:51:45;;;;;;;33.50;5.22;;;5.90;99.90;;;4.25;100.00;99223.63;4927602;28;20026;-82
2022/02/02 00:54:31;;;;;;;35.50;6.35;;;5.80;99.90;;;4.19;100.00;99221.28;4929744;28;20033;-81
2022/02/02 00:56:57;;;;;;;;;;;5.80;99.90;;;4.13;100.00;99214.59;4894442;28;20043;-81
2022/02/02 00:59:24;;;;;;;40.87;7.57;;;5.80;99.90;;;4.15;100.00;99210.16;4905689;28;20012;-83
2022/02/02 01:01:54;;;;;;;41.15;5.45;;;5.80;99.90;;;4.18;100.00;99214.41;4920107;28;20607;-85
2022/02/02 01:04:23;;;;;;;47.20;5.63;;;5.80;99.90;;;4.17;100.00;99223.97;4938419;28;24392;-77
2022/02/02 01:07:09;;;;;;;40.13;6.13;;;5.80;99.90;;;4.16;100.00;99211.84;4944389;28;20030;-78
2022/02/02 01:10:25;;;;;;;41.58;5.60;;;5.70;99.90;;;4.13;100.00;99208.56;4941918;28;20057;-77
2022/02/02 01:12:42;;;;;;;37.38;5.75;;;5.70;99.90;;;4.13;100.00;99217.22;4926163;28;20031;-78
2022/02/02 01:28:11;;;;;;;36.92;5.05;;;5.70;99.90;;;4.09;100.00;99223.47;4973719;28;20076;-78
2022/02/02 01:30:38;;;;;;;46.38;6.13;;;5.70;99.90;;;4.11;100.00;99234.66;4936215;28;20409;-77
2022/02/02 01:33:09;;;;;;;55.70;6.45;;;5.70;99.90;;;4.16;100.00;99224.03;4916699;28;20037;-77
2022/02/02 01:35:36;;;;;;;29.58;5.50;;;5.70;99.90;;;4.17;100.00;99243.94;4932154;28;20026;-77
2022/02/02 01:38:03;;;;;;;40.50;6.07;;;5.80;99.90;;;4.18;100.00;99233.47;4946028;28;20109;-77
2022/02/02 01:40:34;;;;;;;46.55;5.20;;;5.80;99.90;;;4.18;100.00;99183.97;4926855;28;20394;-77
2022/02/02 01:43:11;;;;;;;38.53;6.13;;;5.70;99.90;;;4.13;100.00;99252.84;4937507;28;20042;-77
2022/02/02 01:45:48;;;;;;;39.33;6.72;;;5.70;99.90;;;4.09;100.00;99239.94;4902625;28;20077;-78
2022/02/02 01:55:41;;;;;;;41.78;5.88;;;5.60;99.90;;;4.00;100.00;99249.91;4967907;28;20193;-76
2022/02/02 02:00:38;;;;;;;35.70;6.43;;;5.60;99.90;;;3.96;100.00;99263.97;4952332;28;20034;-78
2022/02/02 02:03:04;;;;;;;30.55;4.70;;;5.60;99.90;;;3.98;100.00;99264.75;4955855;28;20033;-77
2022/02/02 02:05:30;;;;;;;42.95;5.25;;;5.60;99.90;;;3.99;100.00;99261.22;4954343;28;20048;-77
2022/02/02 02:07:56;;;;;;;37.90;5.82;;;5.60;99.90;;;4.04;100.00;99260.13;4950611;28;20034;-78
2022/02/02 02:10:23;;;;;;;31.83;5.47;;;5.70;99.90;;;4.11;100.00;99274.56;4948588;28;20040;-77
2022/02/02 02:12:58;;;;;;;40.45;6.35;;;5.70;99.90;;;4.15;100.00;99270.09;4949907;28;20545;-77
2022/02/02 02:15:28;;;;;;;31.00;5.47;;;5.70;99.90;;;4.17;100.00;99286.50;4933336;28;20036;-78
2022/02/02 02:17:58;;;;;;;43.22;6.10;;;5.80;99.90;;;4.23;100.00;99298.41;4936067;28;20053;-77
2022/02/02 02:20:25;;;;;;;34.58;5.78;;;5.80;99.90;;;4.23;100.00;99274.94;4917965;28;20030;-78
2022/02/02 02:22:51;;;;;;;46.22;5.45;;;5.80;99.90;;;4.29;100.00;99300.75;4908889;28;20490;-77
2022/02/02 02:25:30;;;;;;;31.20;4.88;;;5.80;99.90;;;4.31;100.00;99296.31;4970591;28;20184;-77
2022/02/02 02:28:07;;;;;;;42.53;6.28;;;5.90;99.90;;;4.30;100.00;99273.78;4986584;28;20022;-79
2022/02/02 02:30:50;;;;;;;30.98;4.95;;;5.90;99.90;;;4.32;100.00;99301.47;4922466;28;20031;-77
2022/02/02 02:36:37;;;;;;;35.05;6.40;;;5.90;99.90;;;4.36;100.00;99304.75;4907146;28;20056;-76
2022/02/02 03:53:59;;;;;;;24.55;3.95;;;5.80;99.90;;;4.18;100.00;99352.47;4950362;28;20112;-76
2022/02/02 03:56:34;;;;;;;21.13;4.15;;;5.80;99.90;;;4.15;100.00;99349.97;4947035;28;20022;-77
2022/02/02 04:06:32;;;;;;;23.27;4.28;;;5.70;99.90;;;4.15;100.00;99373.44;4932018;28;20018;-77
2022/02/02 04:08:58;;;;;;;21.55;3.83;;;5.70;99.90;;;4.09;100.00;99351.94;4917501;28;20037;-77
2022/02/02 04:11:38;;;;;;;40.20;4.25;;;5.70;99.90;;;4.12;100.00;99369.19;4923015;28;20029;-77
2022/02/02 04:17:24;;;;;;;27.08;4.43;;;5.70;99.90;;;4.08;100.00;99372.84;4933574;28;20049;-76
2022/02/02 04:39:11;;;;;;;18.75;2.72;;;5.60;99.90;;;4.04;100.00;99384.28;4916639;28;20068;-77
2022/02/02 04:53:39;;;;;;;29.27;3.15;;;5.60;99.90;;;4.10;100.00;99420.50;4948533;28;20033;-77
2022/02/02 04:56:17;;;;;;;15.90;2.47;;;5.70;99.90;;;4.08;100.00;99424.94;4910733;28;20613;-77
2022/02/02 05:07:13;;;;;;;29.65;4.28;;;5.60;99.90;;;4.01;100.00;99431.31;4971028;28;20040;-75
2022/02/02 05:19:18;;;;;;;26.38;4.57;;;5.60;99.90;;;3.94;100.00;99427.28;4959695;28;20067;-77
2022/02/02 05:45:12;;;;;;;26.85;3.25;;;5.50;99.90;;;3.95;100.00;99455.84;4940543;28;20038;-77
2022/02/02 05:52:53;;;;;;;20.67;3.97;;;5.60;99.90;;;3.93;100.00;99464.63;4967326;28;20033;-78
2022/02/02 05:55:22;;;;;;;24.77;4.20;;;5.60;99.90;;;3.99;100.00;99483.47;4923325;28;20043;-78
2022/02/02 05:57:51;;;;;;;43.45;4.85;;;5.60;99.90;;;4.02;100.00;99465.13;4959628;28;20022;-78
2022/02/02 06:00:20;;;;;;;21.85;4.45;;;5.60;99.90;;;4.00;100.00;99471.31;4939524;28;20519;-78
2022/02/02 06:02:53;;;;;;;18.80;3.45;;;5.60;99.90;;;4.01;100.00;99478.19;4913024;28;20034;-77
2022/02/02 06:05:22;;;;;;;25.35;3.35;;;5.60;99.90;;;3.99;100.00;99493.03;4936175;28;20041;-76
2022/02/02 06:07:55;;;;;;;29.45;4.13;;;5.60;99.90;;;4.02;100.00;99487.72;4886071;28;20030;-77
2022/02/02 06:10:24;;;;;;;26.92;4.40;;;5.60;99.90;;;3.90;100.00;99479.47;4923085;28;20034;-77
2022/02/02 06:12:54;;;;;;;15.82;2.90;;;5.50;99.90;;;3.88;100.00;99504.72;4915001;28;20041;-78
2022/02/02 06:15:22;;;;;;;25.98;4.22;;;5.50;99.90;;;3.86;100.00;99497.88;4953246;28;20043;-77
2022/02/02 06:17:51;;;;;;;20.73;3.83;;;5.40;99.90;;;3.79;100.00;99496.41;4906786;28;20113;-78
2022/02/02 06:20:21;;;;;;;35.13;4.50;;;5.40;99.90;;;3.80;100.00;99498.09;4930872;28;20022;-77
2022/02/02 06:23:15;;;;;;;20.38;2.83;;;5.40;99.90;;;3.80;100.00;99504.19;4931192;28;20040;-78
2022/02/02 06:25:47;;;;;;;18.00;2.55;;;5.40;99.90;;;3.79;100.00;99517.25;4909512;28;20125;-76
2022/02/02 06:28:24;;;;;;;33.72;4.00;;;5.40;99.90;;;3.78;100.00;99524.22;4944194;28;20085;-79
2022/02/02 06:31:03;;;;;;;24.63;4.38;;;5.30;99.90;;;3.68;100.00;99543.69;4936102;28;20532;-78
2022/02/02 06:33:36;;;;;;;28.15;4.03;;;5.30;99.90;;;3.61;100.00;99542.22;4926980;28;20186;-79
2022/02/02 06:36:04;;;;;;;22.55;3.20;;;5.20;99.90;;;3.53;100.00;99529.47;4918824;28;20026;-78
2022/02/02 06:38:32;;;;;;;16.27;3.40;;;5.20;99.90;;;3.48;100.00;99550.47;4919176;28;20039;-78
2022/02/02 06:41:01;;;;;;;29.08;3.22;;;5.10;99.90;;;3.47;100.00;99543.56;4989573;28;20038;-77
2022/02/02 06:43:34;;;;;;;27.65;3.00;;;5.10;99.90;;;3.46;100.00;99548.84;4935062;28;20436;-77
2022/02/02 06:46:02;;;;;;;24.02;2.90;;;5.10;99.90;;;3.46;100.00;99546.25;4890946;28;20670;-77
2022/02/02 06:48:31;;;;;;;31.25;3.63;;;5.10;99.90;;;3.46;100.00;99551.44;4933092;28;20022;-78
2022/02/02 06:51:11;;;;;;;13.82;2.35;;;5.10;99.90;;;3.48;100.00;99568.69;4922472;28;20391;-77
2022/02/02 06:54:20;;;;;;;19.75;3.05;;;5.10;99.90;;;3.43;100.00;99569.75;4896089;28;20400;-77
2022/02/02 07:12:43;;;;;;;20.85;3.15;;;4.90;99.90;;;3.23;100.00;99588.69;4936722;28;20089;-77
2022/02/02 07:16:07;;;;;;;25.88;3.70;;;4.90;99.90;;;3.25;100.00;99607.69;4899579;28;20053;-77
2022/02/02 07:18:22;;;;;;;25.75;2.80;;;4.90;99.90;;;3.30;100.00;99621.38;4938615;28;20060;-78
2022/02/02 07:29:33;;;;;;;22.98;3.17;;;5.00;99.90;;;3.45;100.00;99633.00;4862372;28;20664;-78
2022/02/02 07:37:53;;;;;;;26.67;3.55;;;5.10;99.90;;;3.57;100.00;99647.38;4953800;28;20046;-78
2022/02/02 07:40:22;;;;;;;28.27;4.90;;;5.10;99.90;;;3.57;100.00;99661.22;4943073;28;20065;-78
2022/02/02 07:42:53;;;;;;;29.50;3.03;;;5.20;99.90;;;3.62;100.00;99663.66;4932730;28;20038;-79
2022/02/02 07:45:23;;;;;;;20.17;2.88;;;5.20;99.90;;;3.60;100.00;99668.91;4936800;28;20743;-80
2022/02/02 07:48:01;;;;;;;13.13;2.40;;;5.20;99.90;;;3.64;100.00;99682.69;4946291;28;20043;-78
2022/02/02 07:50:34;;;;;;;18.83;2.92;;;5.20;99.90;;;3.67;100.00;99692.97;4879038;28;20042;-78
2022/02/02 07:53:09;;;;;;;29.60;3.50;;;5.20;99.90;;;3.65;100.00;99689.56;4928208;28;20449;-77
2022/02/02 07:55:38;;;;;;;32.53;3.15;;;5.20;99.90;;;3.66;100.00;99691.28;4932125;28;20616;-79
2022/02/02 07:58:06;;;;;;;21.65;2.60;;;5.20;99.90;;;3.68;100.00;99689.47;4939695;28;20496;-80
2022/02/02 08:00:37;;;;;;;23.40;3.60;;;5.30;99.90;;;3.65;100.00;99700.84;4948353;28;20469;-79
2022/02/02 08:05:32;;;;;;;22.92;2.75;;;5.20;99.90;;;3.66;100.00;99714.72;4912473;28;20042;-78
2022/02/02 08:10:30;;;;;;;17.25;1.90;;;5.20;99.90;;;3.62;100.00;99733.94;4923094;28;20114;-78
2022/02/02 08:13:08;;;;;;;22.42;3.42;;;5.20;99.90;;;3.60;100.00;99740.94;4947979;28;20156;-78
2022/02/02 08:15:34;;;;;;;22.27;2.95;;;5.20;99.90;;;3.60;100.00;99748.75;4888911;28;20214;-78
2022/02/02 08:18:01;;;;;;;37.45;5.53;;;5.20;99.90;;;3.61;100.00;99751.31;4909373;23;20070;-79
2022/02/02 08:20:33;;;;;;;21.90;3.40;;;5.20;99.90;;;3.60;100.00;99760.03;4876788;28;20096;-78
2022/02/02 08:23:02;;;;;;;21.45;2.83;;;5.20;99.90;;;3.62;100.00;99773.00;4870122;28;20022;-79
2022/02/02 08:25:31;;;;;;;16.55;3.15;;;5.20;99.90;;;3.61;100.00;99779.13;4964756;28;20114;-77
2022/02/02 08:28:03;;;;;;;21.80;3.80;;;5.20;99.90;;;3.55;100.00;99784.53;4906158;28;20049;-80
2022/02/02 08:30:31;;;;;;;14.13;2.42;;;5.10;99.90;;;3.47;100.00;99779.56;4914268;28;20021;-79
2022/02/02 08:33:01;;;;;;;21.02;2.67;;;5.10;99.90;;;3.41;100.00;99787.56;4887168;28;20027;-78
2022/02/02 08:35:35;;;;;;;23.77;3.42;;;4.80;99.90;;;3.37;100.00;99784.22;4878922;28;20376;-78
2022/02/02 08:38:11;;;;;;;29.52;4.22;;;5.00;99.90;;;3.35;100.00;99806.84;4896302;28;20034;-78
2022/02/02 08:41:14;;;;;;;17.10;3.05;;;5.00;99.90;;;3.34;100.00;99797.31;4904866;28;20023;-78
2022/02/02 08:43:55;;;;;;;9.27;2.35;;;5.00;99.90;;;3.34;100.00;99799.06;4914719;28;20049;-79
2022/02/02 08:46:27;;;;;;;19.15;2.92;;;5.00;99.90;;;3.41;100.00;99823.97;4909774;28;20030;-78
2022/02/02 08:48:57;;;;;;;27.55;3.30;;;5.00;99.90;;;3.49;100.00;99829.81;4923740;28;20037;-78
2022/02/02 08:51:29;;;;;;;22.60;3.30;;;5.10;99.90;;;3.49;100.00;99825.44;4907394;28;20102;-78
2022/02/02 08:54:10;;;;;;;13.13;1.50;;;5.10;99.90;;;3.57;100.00;99826.97;4896898;28;20538;-80
2022/02/02 09:01:50;;;;;;;25.08;3.78;;;5.30;99.90;;;3.82;100.00;99846.09;4932503;28;20053;-80
2022/02/02 09:07:01;;;;;;;19.92;2.45;;;5.30;99.90;;;3.78;100.00;99860.13;4908012;28;20069;-78
2022/02/02 09:20:05;;;;;;;20.15;2.95;;;5.30;99.90;;;3.68;100.00;99858.72;4921509;28;20193;-79
2022/02/02 09:34:05;;;;;;;16.52;2.50;;;5.30;99.90;;;3.84;100.00;99927.59;4917469;28;20506;-78
2022/02/02 09:36:34;;;;;;;10.68;1.60;;;5.40;99.90;;;3.92;100.00;99923.94;4904757;28;20062;-78
2022/02/02 09:39:08;;;;;;;16.40;2.63;;;5.40;99.90;;;3.88;100.00;99931.81;4906618;28;20073;-78
2022/02/02 09:44:04;;;;;;;25.35;2.83;;;5.40;99.90;;;3.89;100.00;99943.97;4914355;28;20566;-77
2022/02/02 09:47:20;;;;;;;15.82;2.25;;;5.40;99.90;;;3.75;100.00;99935.72;4930306;28;20035;-79
2022/02/02 09:49:29;;;;;;;17.55;2.95;;;5.30;99.90;;;3.64;100.00;99943.84;4905249;28;20511;-77
2022/02/02 09:52:03;;;;;;;6.57;0.95;;;5.20;99.90;;;3.63;100.00;99936.97;4915426;28;20034;-78
2022/02/02 09:54:57;;;;;;;7.78;1.40;;;5.30;99.90;;;3.60;100.00;99950.06;4918435;28;20599;-79
2022/02/02 10:00:17;;;;;;;5.78;1.35;;;5.20;99.90;;;3.64;100.00;99979.47;4911930;28;20139;-79
2022/02/02 10:03:21;;;;;;;9.65;1.67;;;5.20;99.90;;;3.57;100.00;99986.59;4970846;28;20032;-78
2022/02/02 10:06:17;;;;;;;14.20;1.75;;;5.10;99.90;;;3.51;100.00;99996.34;4920216;28;20042;-78
2022/02/02 10:14:27;;;;;;;6.85;1.70;;;5.10;99.90;;;3.51;100.00;100009.38;4914785;28;20623;-81
2022/02/02 10:17:01;;;;;;;9.02;1.13;;;5.10;99.90;;;3.66;100.00;100034.94;4917283;28;20402;-79
2022/02/02 10:19:39;;;;;;;9.73;1.10;;;5.20;99.90;;;3.56;100.00;100033.50;4929553;28;20037;-83
2022/02/02 10:22:29;;;;;;;6.68;1.27;;;5.00;99.90;;;3.27;100.00;100037.78;4925057;28;20058;-77
2022/02/02 10:25:03;;;;;;;7.50;1.13;;;5.00;99.90;;;3.29;100.00;100049.84;4904140;28;20533;-81
2022/02/02 10:27:36;;;;;;;2.90;0.70;;;5.00;99.90;;;3.39;100.00;100066.09;4931421;28;20042;-79
2022/02/02 10:30:11;;;;;;;3.55;0.90;;;5.00;99.90;;;3.45;100.00;100057.22;4904167;28;20096;-78
2022/02/02 10:32:45;;;;;;;3.63;0.70;;;5.00;99.90;;;3.55;100.00;100076.06;4944246;28;20030;-79
2022/02/02 10:35:59;;;;;;;14.55;1.45;;;5.10;99.90;;;3.67;100.00;100088.72;4910308;28;20058;-84
2022/02/02 10:45:04;;;;;;;3.47;0.73;;;5.20;99.90;;;3.74;100.00;100128.44;4862141;28;20055;-83
2022/02/02 10:47:35;;;;;;;5.25;0.90;;;5.30;99.90;;;3.80;100.00;100125.69;4847739;28;20585;-82
2022/02/02 10:50:28;;;;;;;1.48;0.80;;;5.30;99.90;;;3.78;100.00;100125.75;4833851;28;20035;-82
2022/02/02 11:06:34;;;;;;;5.35;0.90;;;5.30;99.90;;;3.77;100.00;100163.06;4959261;28;20109;-83
2022/02/02 11:07:44;;;;;;;2.40;0.52;;;5.30;99.90;;;3.80;100.00;100163.00;4865058;28;20097;-84
2022/02/02 11:10:34;;;;;;;3.30;0.52;;;5.40;99.90;;;3.86;100.00;100185.41;4884978;28;20174;-83
2022/02/02 11:13:01;;;;;;;3.08;0.65;;;5.30;99.90;;;3.86;100.00;100188.88;4868120;28;20101;-83
2022/02/02 11:15:58;;;;;;;7.30;1.13;;;5.30;99.90;;;3.71;100.00;100204.91;4891510;28;20057;-83
2022/02/02 11:18:37;;;;;;;;;;;5.20;99.90;;;3.52;100.00;100201.06;4882331;28;20513;-77
2022/02/02 11:21:09;;;;;;;2.08;0.90;;;5.10;99.90;;;3.36;100.00;100209.28;4950640;28;20317;-78
2022/02/02 11:23:59;;;;;;;3.88;1.17;;;5.00;99.90;;;3.25;100.00;100232.13;4907181;28;22098;-84
2022/02/02 11:26:54;;;;;;;4.28;1.13;;;4.90;99.90;;;3.23;100.00;100239.09;4879482;28;20114;-85
2022/02/02 11:29:45;;;;;;;3.67;1.00;;;4.90;99.90;;;3.28;100.00;100237.22;4871560;28;20561;-83
2022/02/02 11:32:16;;;;;;;4.38;0.70;;;4.90;99.90;;;3.24;100.00;100252.09;4900958;28;20034;-84
2022/02/02 11:34:42;;;;;;;1.13;0.50;;;4.90;99.90;;;3.39;100.00;100270.81;4905002;28;20019;-83
2022/02/02 11:37:18;;;;;;;3.33;0.60;;;4.90;99.90;;;3.37;100.00;100276.06;4907481;28;20494;-83
2022/02/02 11:40:02;;;;;;;2.63;0.55;;;4.90;99.90;;;3.38;100.00;100280.38;4914443;28;20540;-84
2022/02/02 11:43:14;;;;;;;1.13;0.45;;;4.90;99.90;;;3.35;100.00;100308.19;4901215;28;20018;-81
2022/02/02 11:46:04;;;;;;;0.75;0.30;;;4.90;99.90;;;3.19;100.00;100321.56;4869931;28;20511;-83
2022/02/02 11:48:54;;;;;;;1.15;0.40;;;4.80;99.90;;;3.09;100.00;100322.69;4878316;28;20031;-83
2022/02/02 11:51:55;;;;;;;1.90;0.35;;;4.70;99.90;;;3.04;100.00;100330.56;4877803;28;20067;-82
2022/02/02 11:54:49;;;;;;;1.48;0.40;;;4.70;99.90;;;3.13;100.00;100339.06;4878414;28;20044;-79
2022/02/02 11:57:23;;;;;;;3.25;0.52;;;4.70;99.90;;;3.05;100.00;100345.31;4900610;28;20568;-81
2022/02/02 12:00:17;;;;;;;1.00;0.25;;;4.60;99.90;;;2.81;100.00;100364.03;4918775;28;20040;-81
2022/02/02 12:08:43;;;;;;;2.58;0.50;;;4.40;99.90;;;2.82;100.00;100365.75;4873945;28;20396;-81
2022/02/02 12:47:32;;;;;;;1.85;0.65;;;3.90;99.90;;;2.39;100.00;100457.53;4860990;28;20090;-82
2022/02/02 12:56:46;;;;;;;3.53;0.45;;;4.20;99.90;;;2.62;100.00;100472.72;4888780;28;20089;-79
2022/02/02 13:02:08;;;;;;;0.85;0.43;;;4.30;99.90;;;2.92;100.00;100486.06;4899539;28;20293;-80
2022/02/02 13:04:34;;;;;;;2.72;0.70;;;4.50;99.90;;;3.16;100.00;100498.56;4892627;28;20531;-80
2022/02/02 13:07:19;;;;;;;3.78;0.60;;;4.60;99.90;;;3.31;100.00;100517.38;4911751;28;20105;-80
2022/02/02 13:09:50;;;;;;;4.38;0.60;;;4.50;99.90;;;2.65;100.00;100502.09;4891496;28;20042;-80
2022/02/02 13:12:53;;;;;;;4.38;0.60;;;4.10;99.90;;;2.14;100.00;100538.47;4889832;28;20047;-79
2022/02/02 13:15:43;;;;;;;1.45;0.38;;;3.80;99.90;;;1.76;100.00;100544.19;4907731;28;20033;-80
2022/02/02 13:18:25;;;;;;;1.73;0.68;;;3.60;99.90;;;1.64;100.00;100540.00;4975578;28;20553;-78
2022/02/02 13:21:02;;;;;;;1.98;0.38;;;3.50;99.90;;;1.70;100.00;100555.50;4903999;28;20541;-80
2022/02/02 13:24:07;;;;;;;2.42;0.60;;;3.40;99.90;;;1.74;100.00;100546.81;4923915;28;20033;-84
2022/02/02 13:26:51;;;;;;;2.55;0.52;;;3.40;99.90;;;1.69;100.00;100555.56;4895196;28;20115;-79
2022/02/02 13:31:59;;;;;;;2.75;0.52;;;3.60;99.90;;;2.17;100.00;100572.19;4886037;28;20371;-78
2022/02/02 13:37:37;;;;;;;1.98;0.38;;;3.80;99.90;;;2.22;100.00;100585.94;4876671;28;20536;-79
2022/02/02 13:54:17;;;;;;;2.45;0.65;;;3.80;99.90;;;2.12;99.15;100636.34;4874918;28;20034;-78
2022/02/02 14:07:48;;;;;;;3.28;0.63;;;3.80;99.90;;;2.12;98.32;100672.72;4914553;28;20523;-78
2022/02/02 14:32:17;;;;;;;3.25;0.60;;;3.70;99.90;;;2.18;99.05;100729.78;4933778;28;20080;-79
2022/02/02 14:34:43;;;;;;;4.90;0.68;;;3.80;99.90;;;2.18;99.56;100739.28;4888753;28;20077;-79
2022/02/02 14:37:22;;;;;;;3.05;0.45;;;3.80;99.90;;;2.18;99.49;100742.78;4904655;28;20030;-77
2022/02/02 14:40:09;;;;;;;4.75;0.82;;;3.80;99.90;;;2.16;100.00;100754.91;4879407;28;24407;-79
2022/02/02 14:42:37;;;;;;;4.10;0.73;;;3.80;99.90;;;2.23;100.00;100760.91;4861248;28;20035;-80
2022/02/02 14:45:09;;;;;;;2.70;0.52;;;3.90;99.90;;;2.25;100.00;100766.94;4918616;28;20050;-79
2022/02/02 14:47:43;;;;;;;6.88;0.65;;;3.80;99.90;;;2.18;100.00;100757.47;4896652;28;20041;-78
2022/02/02 14:50:17;;;;;;;3.50;0.70;;;3.80;99.90;;;2.20;99.98;100767.00;4885455;28;20033;-79
2022/02/02 15:27:51;;;;;;;2.83;0.77;;;3.70;99.90;;;2.03;99.72;100858.09;4964757;28;20050;-78
2022/02/02 15:32:48;;;;;;;1.88;0.50;;;3.60;99.90;;;1.97;100.00;100859.88;4884680;28;20122;-78
2022/02/02 15:35:14;;;;;;;6.28;1.20;;;3.60;99.90;;;1.90;100.00;100858.19;4887672;28;20042;-78
2022/02/02 15:38:17;;;;;;;5.57;0.50;;;3.50;99.90;;;1.82;100.00;100866.06;4879995;28;20027;-78
2022/02/02 15:40:40;;;;;;;2.00;0.60;;;3.50;99.90;;;1.86;100.00;100888.53;4899373;28;20529;-78
2022/02/02 15:43:17;;;;;;;6.35;0.80;;;3.50;99.90;;;1.91;100.00;100865.13;4868255;28;20050;-78
2022/02/02 16:02:10;;;;;;;7.07;0.50;;;3.50;99.90;;;1.90;100.00;100913.63;4856480;28;20051;-77
2022/02/02 16:04:42;;;;;;;6.72;0.90;;;3.50;99.90;;;1.88;100.00;100915.34;4892242;28;20046;-78
2022/02/02 16:07:20;;;;;;;4.75;0.80;;;3.50;99.90;;;1.93;100.00;100928.31;4882414;28;20036;-78
2022/02/02 16:09:51;;;;;;;4.38;0.77;;;3.50;99.90;;;1.97;100.00;100928.25;4915474;28;20121;-79
2022/02/02 16:12:31;;;;;;;4.40;0.93;;;3.50;99.90;;;1.97;100.00;100943.00;4910027;28;20026;-80
2022/02/02 16:15:14;;;;;;;3.88;0.65;;;3.50;99.90;;;2.00;100.00;100945.56;4908524;28;20023;-79
2022/02/02 16:18:08;;;;;;;5.40;0.80;;;3.60;99.90;;;2.02;100.00;100936.88;4907239;28;20049;-80
2022/02/02 16:31:47;;;;;;;9.35;0.98;;;3.40;99.90;;;1.74;100.00;100977.75;4880281;28;20070;-80
2022/02/02 16:37:05;;;;;;;2.60;0.82;;;3.10;99.90;;;1.43;100.00;100980.53;4914971;28;20031;-80
2022/02/02 16:39:35;;;;;;;11.13;1.10;;;3.00;99.90;;;1.28;100.00;100993.56;4887561;28;20896;-79
2022/02/02 16:44:48;;;;;;;7.05;1.20;;;2.70;99.90;;;1.00;100.00;100991.06;4923261;28;20049;-78
2022/02/02 16:47:14;;;;;;;7.13;1.08;;;2.60;99.90;;;0.87;100.00;100988.53;4878533;28;20046;-78
2022/02/02 16:49:45;;;;;;;5.53;0.90;;;2.50;99.90;;;0.78;100.00;100997.19;4895815;28;20022;-78
2022/02/02 16:52:11;;;;;;;6.07;1.10;;;2.40;99.90;;;0.68;100.00;100998.06;4878081;28;20525;-79
2022/02/02 16:54:42;;;;;;;6.30;0.80;;;2.40;99.90;;;0.58;100.00;100995.50;4917153;28;20124;-78
2022/02/02 16:57:29;;;;;;;7.85;1.15;;;2.30;99.90;;;0.54;100.00;100992.88;4923908;28;20038;-78
2022/02/02 17:30:13;;;;;;;7.80;1.30;;;1.50;99.90;;;-0.23;100.00;101032.53;4885440;28;20057;-84
2022/02/02 17:35:38;;;;;;;5.72;1.23;;;1.50;99.90;;;-0.27;100.00;101043.75;4983880;28;20037;-77
2022/02/02 17:41:06;;;;;;;9.18;1.55;;;1.60;99.90;;;0.02;100.00;101055.03;4900831;28;20101;-77
2022/02/02 18:21:04;;;;;;;5.30;1.17;;;2.20;99.90;;;0.58;100.00;101093.97;4926484;28;20111;-77
2022/02/02 18:26:19;;;;;;;4.65;1.20;;;2.20;99.90;;;0.50;100.00;101094.84;4948539;28;20495;-78
2022/02/02 18:54:04;;;;;;;5.70;1.50;;;1.80;99.90;;;0.19;100.00;101121.56;4878718;28;20058;-81
2022/02/02 18:59:33;;;;;;;14.05;1.60;;;1.90;99.90;;;0.40;100.00;101143.16;4905847;28;20038;-78
2022/02/02 19:05:04;;;;;;;12.75;1.70;;;2.10;99.90;;;0.66;100.00;101142.34;4915455;28;20065;-82
2022/02/02 19:07:52;;;;;;;11.45;1.85;;;2.20;99.90;;;0.78;100.00;101150.13;4898984;28;20050;-82
2022/02/02 19:40:41;;;;;;;7.72;1.30;;;2.60;99.90;;;0.97;100.00;101151.88;4891123;28;21059;-81
2022/02/02 20:05:39;;;;;;;12.80;1.60;;;1.60;99.90;;;-0.12;100.00;101151.66;4913390;28;20062;-79
2022/02/02 20:10:48;;;;;;;12.38;1.77;;;1.50;99.90;;;-0.29;100.00;101159.31;4883194;28;20038;-81
2022/02/02 20:13:15;;;;;;;;;;;1.50;99.90;;;-0.35;100.00;101167.06;4908647;28;20105;-77
2022/02/02 20:15:42;;;;;;;10.80;1.98;;;1.40;99.90;;;-0.39;100.00;101172.22;4927243;28;19906;-76
2022/02/02 20:18:09;;;;;;;12.30;1.83;;;1.30;99.90;;;-0.39;100.00;101172.22;4928184;28;20053;-77
2022/02/02 20:20:45;;;;;;;15.18;2.35;;;1.30;99.90;;;-0.41;100.00;101169.63;4902704;28;20423;-77
2022/02/02 20:23:15;;;;;;;16.27;2.17;;;1.20;99.90;;;-0.40;100.00;101167.91;4916808;28;20034;-77
2022/02/02 20:25:49;;;;;;;13.18;2.08;;;1.20;99.90;;;-0.45;100.00;101168.75;4902696;28;20042;-77
2022/02/02 20:28:16;;;;;;;16.55;2.13;;;1.20;99.90;;;-0.48;100.00;101180.78;4914156;28;20046;-76
2022/02/02 20:30:42;;;;;;;10.93;2.20;;;1.20;99.90;;;-0.49;100.00;101185.09;4903844;28;20045;-77
2022/02/02 20:33:08;;;;;;;10.35;2.03;;;1.20;99.90;;;-0.50;100.00;101180.75;4911875;28;20079;-77
2022/02/02 20:35:42;;;;;;;11.88;2.33;;;1.10;99.90;;;-0.50;100.00;101185.09;4909397;28;20042;-77
2022/02/02 20:38:08;;;;;;;12.77;2.05;;;1.10;99.90;;;-0.52;100.00;101186.78;4934902;28;20654;-77
2022/02/02 20:40:34;;;;;;;15.07;2.35;;;1.10;99.90;;;-0.52;100.00;101177.34;4917241;28;20027;-77
2022/02/02 20:43:07;;;;;;;15.40;2.35;;;1.10;99.90;;;-0.52;100.00;101177.34;4921605;28;20041;-76
2022/02/02 21:05:35;;;;;;;13.73;2.25;;;0.80;99.90;;;-0.98;100.00;101181.31;4916580;28;20096;-82
2022/02/02 21:11:19;;;;;;;11.68;2.08;;;0.60;99.90;;;-1.12;100.00;101205.31;4865581;28;20054;-82
2022/02/02 21:13:53;;;;;;;26.88;2.97;;;0.60;99.90;;;-1.12;100.00;101205.31;4878177;28;20031;-81
2022/02/02 21:16:29;;;;;;;21.10;2.47;;;0.60;99.90;;;-1.11;100.00;101207.03;4901858;28;21217;-82
2022/02/02 21:19:07;;;;;;;20.75;2.53;;;0.60;99.90;;;-1.09;100.00;101212.22;4884690;28;20062;-80
2022/02/02 21:21:59;;;;;;;19.30;2.35;;;0.60;99.90;;;-1.06;100.00;101212.25;4853132;28;20444;-81
2022/02/02 21:27:17;;;;;;;28.02;2.53;;;0.70;99.90;;;-1.00;100.00;101226.94;4885553;28;20037;-81
2022/02/02 21:29:46;;;;;;;13.68;2.20;;;0.60;99.90;;;-0.98;100.00;101212.31;4891118;28;20514;-77
2022/02/02 21:32:19;;;;;;;10.35;2.05;;;0.70;99.90;;;-0.97;100.00;101216.63;4895984;28;20129;-81
2022/02/02 21:34:52;;;;;;;19.77;2.53;;;0.70;99.90;;;-0.95;100.00;101217.50;4921971;28;20121;-80
2022/02/02 21:37:20;;;;;;;24.17;3.05;;;0.70;99.90;;;-0.93;100.00;101223.56;4878597;28;20039;-80
2022/02/02 21:40:03;;;;;;;19.20;2.35;;;0.70;99.90;;;-0.94;100.00;101225.28;4873222;28;20039;-80
2022/02/02 21:42:33;;;;;;;34.67;2.65;;;0.80;99.90;;;-0.90;100.00;101211.53;4862197;28;20572;-80
2022/02/02 21:45:01;;;;;;;20.63;3.50;;;0.80;99.90;;;-0.89;100.00;101236.53;4913780;28;20498;-80
2022/02/02 21:47:31;;;;;;;18.85;2.15;;;0.80;99.90;;;-0.87;100.00;101233.94;4905616;28;20076;-81